Terminal Aerodrome Forecast
Issued by NWS Amarillo, TX

Home | Current Version | Previous Version | Text Only | Print | Product List | Glossary On
Versions: 1 2 3 4 5 6 7 8 9 10 11 12 13 14
000
FTUS44 KAMA 290500
TAFGUY
TAF
KGUY 290520Z 2906/3006 34007KT P6SM BKN250
     FM291800 03012KT P6SM SCT010 BKN100
     FM292300 05012G18KT 5SM -SHSN OVC010=

USA.gov is the U.S. government's official web portal to all federal, state and local government web resources and services.